Time;durP1;ratioP1;P1;durP2;ratioP2;P2;SDS_P1;SDS_P2;PMS_P1;PMS_P2;Temp;Humidity;BMP_temperature;BMP_pressure;BME280_temperature;BME280_humidity;BME280_pressure;Samples;Min_cycle;Max_cycle;Signal;HPM_P1;HPM_P2
2022/03/03 00:00:20;;;;;;;29.95;13.63;;;;;;;-1.99;93.44;99075.84;5054305;28;20032;-71
2022/03/03 00:02:45;;;;;;;31.00;13.20;;;;;;;-2.13;93.08;99054.84;5054460;28;20044;-70
2022/03/03 00:05:11;;;;;;;28.63;14.07;;;;;;;-1.99;93.18;99102.34;5049145;28;20025;-71
2022/03/03 00:07:37;;;;;;;33.65;15.40;;;;;;;-2.09;93.71;99096.91;5058265;28;20059;-70
2022/03/03 00:10:07;;;;;;;37.28;15.48;;;;;;;-2.24;93.78;99082.16;5053318;28;20488;-71
2022/03/03 00:12:32;;;;;;;31.65;14.68;;;;;;;-2.33;94.07;99096.94;5046343;28;20037;-71
2022/03/03 00:14:58;;;;;;;30.60;15.43;;;;;;;-2.47;94.30;99087.34;5049463;28;20026;-71
2022/03/03 00:17:23;;;;;;;33.70;14.32;;;;;;;-2.53;95.14;99102.88;5054298;28;20029;-71
2022/03/03 00:19:48;;;;;;;33.67;14.32;;;;;;;-2.55;94.76;99112.72;5051000;28;20036;-71
2022/03/03 00:22:15;;;;;;;33.55;14.50;;;;;;;-2.74;95.47;99100.84;5053135;28;20036;-71
2022/03/03 00:24:41;;;;;;;31.30;14.25;;;;;;;-2.72;95.41;99088.34;5039145;28;20017;-71
2022/03/03 00:27:06;;;;;;;27.90;13.18;;;;;;;-2.62;95.42;99104.41;5053477;28;20131;-71
2022/03/03 00:29:32;;;;;;;37.95;14.75;;;;;;;-2.57;95.21;99091.63;5051388;28;20036;-71
2022/03/03 00:31:57;;;;;;;29.80;14.80;;;;;;;-2.35;94.78;99103.31;5053567;28;20500;-71
2022/03/03 00:34:23;;;;;;;25.48;13.25;;;;;;;-2.34;93.24;99110.28;5053067;28;20481;-71
2022/03/03 00:36:48;;;;;;;25.42;12.40;;;;;;;-2.49;93.61;99086.66;5065813;28;20480;-72
2022/03/03 00:39:14;;;;;;;24.33;12.10;;;;;;;-2.53;93.54;99116.97;5034409;28;20025;-70
2022/03/03 00:41:39;;;;;;;26.10;13.02;;;;;;;-2.74;93.55;99084.94;5050256;28;20055;-71
2022/03/03 00:44:06;;;;;;;27.67;13.55;;;;;;;-2.64;93.49;99119.56;5053308;28;20120;-71
2022/03/03 00:46:33;;;;;;;24.60;12.68;;;;;;;-2.67;93.61;99111.84;5053340;28;20017;-71
2022/03/03 00:48:58;;;;;;;30.55;12.65;;;;;;;-2.70;93.96;99117.34;5033906;28;20021;-71
2022/03/03 00:51:24;;;;;;;26.05;13.15;;;;;;;-2.60;93.83;99104.28;5051464;28;20548;-71
2022/03/03 00:53:50;;;;;;;28.98;13.70;;;;;;;-2.50;93.70;99119.38;5033335;28;20036;-71
2022/03/03 00:56:16;;;;;;;32.13;13.07;;;;;;;-2.66;93.15;99103.75;5053876;28;20067;-71
2022/03/03 00:58:42;;;;;;;28.52;13.02;;;;;;;-2.57;93.48;99099.59;5051003;28;20027;-71
2022/03/03 01:01:07;;;;;;;29.17;12.50;;;;;;;-2.67;92.81;99101.25;5053360;28;20033;-71
2022/03/03 01:03:33;;;;;;;28.30;12.13;;;;;;;-2.76;94.15;99089.50;5039489;28;20425;-71
2022/03/03 01:05:58;;;;;;;34.53;12.55;;;;;;;-2.78;94.27;99095.88;5035146;28;20025;-71
2022/03/03 01:08:23;;;;;;;23.80;11.52;;;;;;;-2.89;94.64;99101.94;5050215;28;20039;-71
2022/03/03 01:10:49;;;;;;;23.23;12.15;;;;;;;-2.92;95.01;99095.06;5035166;28;20025;-71
2022/03/03 01:13:15;;;;;;;31.33;13.32;;;;;;;-3.19;94.86;99060.03;5046251;28;20102;-71
2022/03/03 01:15:40;;;;;;;24.20;12.05;;;;;;;-3.09;94.25;99079.56;5053960;28;20031;-71
2022/03/03 01:18:06;;;;;;;25.38;11.52;;;;;;;-3.04;94.20;99093.28;5051801;28;20484;-71
2022/03/03 01:20:31;;;;;;;27.52;12.27;;;;;;;-3.13;94.96;99086.03;5052169;28;20498;-70
2022/03/03 01:22:57;;;;;;;25.88;12.75;;;;;;;-3.23;95.39;99092.94;5051999;28;20040;-71
2022/03/03 01:25:22;;;;;;;31.45;13.38;;;;;;;-3.37;96.63;99085.97;5034843;28;20021;-71
2022/03/03 01:27:48;;;;;;;22.02;12.23;;;;;;;-3.37;97.36;99091.28;5055277;28;20536;-71
2022/03/03 01:30:13;;;;;;;23.58;12.43;;;;;;;-3.28;98.36;99084.47;5052996;28;20033;-70
2022/03/03 01:32:39;;;;;;;27.20;13.05;;;;;;;-3.29;97.56;99057.19;5048538;28;20033;-71
2022/03/03 01:35:04;;;;;;;26.85;13.02;;;;;;;-3.12;96.47;99059.47;5051549;28;20032;-71
2022/03/03 01:37:30;;;;;;;29.95;12.60;;;;;;;-2.98;96.04;99086.75;5052605;28;20077;-71
2022/03/03 01:39:55;;;;;;;31.45;13.00;;;;;;;-3.08;95.75;99060.09;5049838;28;20477;-71
2022/03/03 01:42:21;;;;;;;27.38;12.75;;;;;;;-3.12;95.96;99085.06;5051822;28;20024;-70
2022/03/03 01:44:47;;;;;;;27.58;12.80;;;;;;;-3.27;96.48;99080.91;5030722;28;20093;-71
2022/03/03 01:47:18;;;;;;;29.00;12.35;;;;;;;-3.34;96.19;99086.59;5052179;28;20029;-71
2022/03/03 01:49:44;;;;;;;30.98;13.13;;;;;;;-3.47;96.61;99077.84;5049311;28;20025;-70
2022/03/03 01:52:09;;;;;;;27.90;13.30;;;;;;;-3.59;97.16;99076.03;5050647;28;20021;-70
2022/03/03 01:54:34;;;;;;;28.20;13.75;;;;;;;-3.50;97.14;99090.44;5047493;28;20024;-70
2022/03/03 01:57:00;;;;;;;24.67;12.40;;;;;;;-3.55;97.14;99086.31;5051250;28;20107;-70
2022/03/03 01:59:25;;;;;;;28.00;13.80;;;;;;;-3.36;97.71;99093.78;5031542;28;20108;-71
2022/03/03 02:01:51;;;;;;;26.52;12.18;;;;;;;-3.35;97.36;99092.84;5051422;28;20029;-70
2022/03/03 02:04:16;;;;;;;26.83;12.98;;;;;;;-3.40;97.01;99065.88;5048274;28;20021;-70
2022/03/03 02:06:42;;;;;;;29.63;13.90;;;;;;;-3.21;96.71;99083.09;5050327;28;20397;-71
2022/03/03 02:09:07;;;;;;;26.95;13.05;;;;;;;-3.37;96.77;99065.66;5052433;28;20025;-70
2022/03/03 02:11:33;;;;;;;25.50;12.90;;;;;;;-3.32;96.78;99078.56;5037725;28;20475;-71
2022/03/03 02:14:01;;;;;;;24.48;12.80;;;;;;;-3.41;96.44;99053.59;5052146;28;20068;-70
2022/03/03 02:16:26;;;;;;;26.65;12.80;;;;;;;-2.98;95.42;99077.00;5053877;28;20099;-70
2022/03/03 02:18:52;;;;;;;22.70;12.52;;;;;;;-3.07;94.51;99080.28;5051238;28;20029;-70
2022/03/03 02:21:17;;;;;;;30.10;12.52;;;;;;;-3.15;94.54;99078.19;5052246;28;20029;-71
2022/03/03 02:23:43;;;;;;;26.10;12.15;;;;;;;-3.38;94.48;99020.78;5050145;28;20078;-70
2022/03/03 02:26:12;;;;;;;24.95;11.70;;;;;;;-3.02;94.80;99064.09;5032756;28;20061;-70
2022/03/03 02:28:40;;;;;;;24.67;11.95;;;;;;;-2.85;94.30;99070.81;5051166;28;20060;-70
2022/03/03 02:31:05;;;;;;;25.17;11.75;;;;;;;-3.14;93.92;99031.44;5052572;28;20687;-70
2022/03/03 02:33:30;;;;;;;23.60;11.73;;;;;;;-3.29;94.25;99037.81;5051695;28;20059;-71
2022/03/03 02:35:55;;;;;;;27.00;11.70;;;;;;;-2.97;94.57;99060.13;5054663;28;20035;-70
2022/03/03 02:38:21;;;;;;;26.60;11.57;;;;;;;-3.17;94.42;99052.78;5053206;28;20037;-70
2022/03/03 02:40:46;;;;;;;23.85;11.85;;;;;;;-3.50;94.35;99024.31;5050505;28;20124;-70
2022/03/03 02:43:11;;;;;;;25.17;13.20;;;;;;;-3.43;95.22;99058.16;5047027;28;20037;-70
2022/03/03 02:45:37;;;;;;;27.52;14.05;;;;;;;-3.52;95.13;99045.56;5049295;28;20048;-70
2022/03/03 02:48:02;;;;;;;33.65;14.18;;;;;;;-3.70;96.18;99036.28;5051481;28;20538;-70
2022/03/03 02:50:28;;;;;;;28.20;14.60;;;;;;;-3.45;96.68;99061.88;5032094;28;20477;-70
2022/03/03 02:52:53;;;;;;;31.95;14.57;;;;;;;-3.58;95.87;99064.53;5050822;28;20427;-70
2022/03/03 02:55:20;;;;;;;37.33;15.30;;;;;;;-3.78;96.66;99040.31;5046728;28;20033;-70
2022/03/03 02:57:55;;;;;;;32.28;14.30;;;;;;;-3.78;97.13;99053.53;5033258;28;20385;-70
2022/03/03 03:00:26;;;;;;;30.17;13.77;;;;;;;-3.80;97.24;99057.22;5032939;28;21872;-70
2022/03/03 03:02:52;;;;;;;34.72;14.75;;;;;;;-3.78;97.44;99053.53;5053059;28;20520;-70
2022/03/03 03:05:18;;;;;;;30.95;14.55;;;;;;;-3.78;98.16;99045.59;5049019;28;20058;-70
2022/03/03 03:07:44;;;;;;;30.60;14.27;;;;;;;-3.76;97.66;99006.69;5048092;28;20033;-70
2022/03/03 03:10:09;;;;;;;31.60;14.27;;;;;;;-3.70;98.08;99008.06;5030634;28;20438;-70
2022/03/03 03:12:34;;;;;;;32.33;13.00;;;;;;;-3.76;97.47;99009.34;5052336;28;20543;-70
2022/03/03 03:15:00;;;;;;;29.05;12.88;;;;;;;-3.74;96.87;99035.69;5049540;28;20040;-70
2022/03/03 03:17:25;;;;;;;30.15;13.35;;;;;;;-3.94;97.28;99026.47;5030605;28;20025;-70
2022/03/03 03:19:51;;;;;;;24.35;13.15;;;;;;;-3.87;97.84;99030.41;5031854;28;20174;-70
2022/03/03 03:22:16;;;;;;;26.92;14.18;;;;;;;-3.87;97.79;99030.41;5047582;28;20044;-70
2022/03/03 03:24:42;;;;;;;29.75;14.40;;;;;;;-3.98;97.82;99027.66;5047780;28;20037;-70
2022/03/03 03:27:07;;;;;;;27.92;13.57;;;;;;;-4.04;98.36;99018.34;5046975;28;20025;-70
2022/03/03 03:29:33;;;;;;;28.48;13.48;;;;;;;-4.07;98.71;99012.44;5048836;28;20029;-70
2022/03/03 03:31:58;;;;;;;26.63;13.20;;;;;;;-4.25;98.83;98996.88;5049050;28;20473;-70
2022/03/03 03:34:23;;;;;;;23.67;12.85;;;;;;;-4.20;98.72;99013.25;5047712;28;20440;-70
2022/03/03 03:36:49;;;;;;;24.95;12.57;;;;;;;-4.24;99.08;99010.97;5049237;28;20039;-70
2022/03/03 03:39:14;;;;;;;31.55;13.23;;;;;;;-4.34;98.97;99004.59;5032751;28;20032;-70
2022/03/03 03:41:40;;;;;;;29.25;13.38;;;;;;;-4.34;99.27;99008.09;5049424;28;20505;-70
2022/03/03 03:44:05;;;;;;;27.90;13.52;;;;;;;-4.47;99.43;98994.03;5049767;28;20033;-70
2022/03/03 03:46:31;;;;;;;31.33;12.68;;;;;;;-4.60;100.00;98980.81;5047340;28;20029;-70
2022/03/03 03:48:56;;;;;;;30.52;12.63;;;;;;;-4.53;99.84;98999.69;5067829;22;20094;-68
2022/03/03 03:51:21;;;;;;;25.42;12.50;;;;;;;-4.56;99.73;99002.56;5052695;28;20086;-71
2022/03/03 03:53:47;;;;;;;25.25;12.70;;;;;;;-4.59;99.82;99000.97;5051247;28;20945;-70
2022/03/03 03:56:12;;;;;;;28.17;13.85;;;;;;;-4.50;100.00;98983.69;5051487;28;20112;-71
2022/03/03 03:58:38;;;;;;;25.70;13.90;;;;;;;-4.52;100.00;98981.13;5036045;28;20494;-71
2022/03/03 04:01:03;;;;;;;25.20;12.77;;;;;;;-4.48;100.00;98972.06;5034455;28;20025;-70
2022/03/03 04:03:28;;;;;;;30.50;12.45;;;;;;;-4.33;100.00;98988.63;5046637;28;20032;-68
2022/03/03 04:05:53;;;;;;;25.83;12.05;;;;;;;-4.36;99.92;98980.94;5054464;28;20103;-69
2022/03/03 04:08:19;;;;;;;31.02;13.40;;;;;;;-4.49;100.00;98959.78;5047768;28;20028;-74
2022/03/03 04:10:45;;;;;;;28.35;12.57;;;;;;;-4.41;100.00;98967.19;5033314;28;20372;-73
2022/03/03 04:13:11;;;;;;;26.63;12.68;;;;;;;-4.43;100.00;98984.94;5073444;28;20028;-74
2022/03/03 04:15:36;;;;;;;27.88;12.70;;;;;;;-4.54;100.00;98979.53;5070146;28;20025;-72
2022/03/03 04:18:02;;;;;;;25.25;12.30;;;;;;;-4.69;100.00;98969.09;5056553;28;20060;-74
2022/03/03 04:20:27;;;;;;;26.30;12.55;;;;;;;-4.60;100.00;98977.31;5076099;28;20025;-74
2022/03/03 04:22:53;;;;;;;25.30;12.38;;;;;;;-4.53;100.00;98978.59;5069189;28;20027;-73
2022/03/03 04:25:18;;;;;;;27.65;13.15;;;;;;;-4.66;100.00;98957.47;5045028;28;20024;-74
2022/03/03 04:27:44;;;;;;;25.55;12.68;;;;;;;-4.60;100.00;98969.41;5068518;28;20029;-71
2022/03/03 04:30:10;;;;;;;27.40;12.35;;;;;;;-4.51;100.00;98984.63;5067568;28;20080;-71
2022/03/03 04:32:40;;;;;;;28.95;13.40;;;;;;;-4.46;100.00;98970.16;5054041;28;20021;-74
2022/03/03 04:35:06;;;;;;;31.10;13.30;;;;;;;-4.13;100.00;98986.44;5051971;28;20104;-73
2022/03/03 04:37:31;;;;;;;24.00;11.88;;;;;;;-4.08;100.00;98964.03;5054313;28;20384;-72
2022/03/03 04:39:57;;;;;;;29.73;13.25;;;;;;;-4.15;99.96;98957.47;5032190;28;20117;-74
2022/03/03 04:42:22;;;;;;;29.52;12.70;;;;;;;-4.24;98.74;98943.13;5061688;28;20028;-71
2022/03/03 04:44:48;;;;;;;27.45;12.20;;;;;;;-4.34;98.64;98936.78;5055032;28;20551;-75
2022/03/03 04:47:14;;;;;;;21.40;11.60;;;;;;;-4.28;98.49;98930.22;5060032;28;20020;-71
2022/03/03 04:49:39;;;;;;;26.10;11.88;;;;;;;-4.26;98.07;98939.72;5046251;28;20052;-73
2022/03/03 04:52:05;;;;;;;24.15;12.27;;;;;;;-4.04;98.77;98959.38;5060144;28;20108;-71
2022/03/03 04:54:31;;;;;;;37.22;18.35;;;;;;;-4.31;98.64;98919.88;5046258;28;20020;-72
2022/03/03 04:56:56;;;;;;;32.20;14.57;;;;;;;-4.26;99.36;98938.91;5058304;28;20039;-73
2022/03/03 04:59:25;;;;;;;32.30;14.15;;;;;;;-4.36;100.00;98932.56;5039347;28;20033;-77
2022/03/03 05:01:51;;;;;;;32.50;14.85;;;;;;;-4.43;100.00;98927.72;5049054;28;20502;-78
2022/03/03 05:04:20;;;;;;;31.50;15.90;;;;;;;-4.26;99.53;98966.16;5041183;28;20381;-77
2022/03/03 05:06:46;;;;;;;21.10;11.32;;;;;;;-4.76;99.26;98914.16;5055942;28;20017;-69
2022/03/03 05:09:12;;;;;;;27.88;12.95;;;;;;;-4.67;99.94;98968.97;5055784;28;20036;-69
2022/03/03 05:11:38;;;;;;;27.70;13.57;;;;;;;-4.74;100.00;98976.47;5049897;28;20027;-70
2022/03/03 05:14:03;;;;;;;32.67;14.45;;;;;;;-4.75;100.00;98940.44;5072512;28;20028;-71
2022/03/03 05:16:29;;;;;;;27.75;14.10;;;;;;;-4.72;100.00;98973.69;5054992;28;20472;-70
2022/03/03 05:18:55;;;;;;;29.60;13.63;;;;;;;-4.91;100.00;98952.97;5054987;28;20027;-70
2022/03/03 05:21:20;;;;;;;30.08;13.85;;;;;;;-4.96;100.00;98955.91;5055411;28;20020;-69
2022/03/03 05:23:46;;;;;;;27.15;12.75;;;;;;;-4.83;100.00;98984.97;5068835;28;20118;-71
2022/03/03 05:26:11;;;;;;;25.52;12.48;;;;;;;-4.90;100.00;98981.91;5066917;28;20025;-71
2022/03/03 05:28:37;;;;;;;26.58;13.02;;;;;;;-5.03;100.00;98973.13;5061970;28;20170;-73
2022/03/03 05:31:02;;;;;;;30.85;14.32;;;;;;;-4.59;100.00;98981.66;5069720;28;20033;-70
2022/03/03 05:33:28;;;;;;;26.60;12.23;;;;;;;-4.46;100.00;98974.59;5072041;28;20028;-74
2022/03/03 05:35:58;;;;;;;26.02;12.18;;;;;;;-4.50;100.00;98978.41;5069624;28;20033;-70
2022/03/03 05:38:29;;;;;;;29.52;12.63;;;;;;;-4.60;100.00;98964.13;5066753;28;20028;-71
2022/03/03 05:40:54;;;;;;;25.55;11.57;;;;;;;-4.85;100.00;98947.28;5037681;28;20491;-74
2022/03/03 05:43:20;;;;;;;23.83;12.10;;;;;;;-4.76;100.00;98975.72;5053887;28;20115;-71
2022/03/03 05:45:47;;;;;;;22.92;12.60;;;;;;;-4.95;100.00;98967.31;5050958;28;20391;-72
2022/03/03 05:48:16;;;;;;;24.55;12.02;;;;;;;-5.01;100.00;98976.47;5053031;28;20029;-75
2022/03/03 05:50:41;;;;;;;31.63;14.02;;;;;;;-5.07;100.00;98977.72;5061172;28;20063;-69
2022/03/03 05:53:06;;;;;;;26.63;13.80;;;;;;;-5.25;100.00;98955.19;5059850;28;20049;-69
2022/03/03 05:55:32;;;;;;;26.80;12.63;;;;;;;-5.00;100.00;98972.03;5061973;28;20029;-70
2022/03/03 05:57:59;;;;;;;27.52;12.63;;;;;;;-5.00;100.00;98979.97;5057243;28;20036;-69
2022/03/03 06:00:28;;;;;;;25.92;12.68;;;;;;;-4.92;100.00;98970.63;5060377;28;20117;-69
2022/03/03 06:02:55;;;;;;;26.75;12.10;;;;;;;-4.77;100.00;98979.28;5059203;28;20021;-68
2022/03/03 06:05:24;;;;;;;28.20;12.38;;;;;;;-4.65;100.00;98981.09;5050001;28;20170;-73
2022/03/03 06:07:52;;;;;;;28.77;12.82;;;;;;;-4.48;100.00;98966.78;5029487;28;20020;-71
2022/03/03 06:10:23;;;;;;;27.75;12.23;;;;;;;-4.32;100.00;98976.28;5045908;28;20037;-66
2022/03/03 06:12:54;;;;;;;33.45;12.75;;;;;;;-4.21;100.00;98969.31;5055292;28;20021;-67
2022/03/03 06:15:22;;;;;;;26.92;12.82;;;;;;;-4.23;100.00;98959.81;5057518;28;20037;-69
2022/03/03 06:17:49;;;;;;;30.70;12.97;;;;;;;-4.08;99.08;98952.63;5054023;28;20031;-67
2022/03/03 06:20:15;;;;;;;28.40;12.77;;;;;;;-3.91;97.75;98957.53;5058393;28;20064;-67
2022/03/03 06:22:41;;;;;;;24.00;12.02;;;;;;;-4.05;97.78;98910.13;5051465;28;20498;-68
2022/03/03 06:25:06;;;;;;;28.63;12.85;;;;;;;-3.85;96.58;98925.41;5047654;28;20024;-66
2022/03/03 06:27:32;;;;;;;39.80;15.20;;;;;;;-3.93;94.52;98917.19;5048770;28;20035;-71
2022/03/03 06:29:58;;;;;;;36.15;14.45;;;;;;;-3.99;94.19;98904.41;5045365;28;20025;-69
2022/03/03 06:32:23;;;;;;;23.75;12.27;;;;;;;-3.32;94.27;98902.16;5052868;28;20499;-66
2022/03/03 06:34:48;;;;;;;25.85;13.07;;;;;;;-1.58;87.05;98896.69;5047275;28;20032;-65
2022/03/03 06:37:14;;;;;;;22.60;12.15;;;;;;;-0.45;78.36;98903.22;5048557;28;20078;-69
2022/03/03 06:39:39;;;;;;;22.80;10.98;;;;;;;0.33;71.83;98868.09;5047661;28;20036;-72
2022/03/03 06:42:05;;;;;;;21.23;10.40;;;;;;;1.26;67.63;98904.03;5031799;28;20453;-73
2022/03/03 06:44:30;;;;;;;23.42;11.35;;;;;;;1.57;67.44;98890.50;5057321;28;20050;-71
2022/03/03 06:46:56;;;;;;;19.83;10.38;;;;;;;2.67;63.64;98905.75;5053169;28;20029;-70
2022/03/03 06:49:22;;;;;;;26.10;11.23;;;;;;;3.38;60.65;98908.47;5055521;28;20032;-70
2022/03/03 06:51:49;;;;;;;23.15;11.57;;;;;;;4.44;57.15;98913.59;5047310;28;20373;-70
2022/03/03 06:54:17;;;;;;;21.70;11.80;;;;;;;5.68;54.50;98915.44;5063660;28;20028;-70
2022/03/03 06:56:54;;;;;;;21.45;12.00;;;;;;;6.12;51.60;98918.59;5049165;28;20028;-69
2022/03/03 06:59:27;;;;;;;19.98;11.85;;;;;;;6.98;50.95;98914.19;5048436;28;20031;-70
2022/03/03 07:01:54;;;;;;;19.33;11.38;;;;;;;7.35;46.05;98884.84;5042243;28;20584;-73
2022/03/03 07:04:21;;;;;;;17.75;10.15;;;;;;;7.73;48.54;98917.16;5052490;28;20025;-74
2022/03/03 07:06:47;;;;;;;20.25;10.52;;;;;;;6.95;48.88;98919.09;5058170;28;20017;-68
2022/03/03 07:09:13;;;;;;;18.75;10.90;;;;;;;6.93;49.70;98918.44;5063299;28;20036;-71
2022/03/03 07:11:40;;;;;;;19.73;10.65;;;;;;;7.18;48.99;98917.25;5038242;28;20059;-71
2022/03/03 07:14:06;;;;;;;19.63;11.48;;;;;;;7.58;47.72;98923.34;5057287;28;21261;-71
2022/03/03 07:16:34;;;;;;;17.55;9.95;;;;;;;8.03;45.67;98918.88;5057744;28;20028;-73
2022/03/03 07:19:03;;;;;;;16.30;10.13;;;;;;;8.97;44.87;98899.41;5052475;28;20029;-68
2022/03/03 07:21:53;;;;;;;21.92;10.77;;;;;;;9.57;42.54;98891.88;5047353;28;20056;-72
2022/03/03 07:24:32;;;;;;;17.70;10.43;;;;;;;9.42;43.78;98892.78;5043846;28;20032;-73
2022/03/03 07:27:04;;;;;;;21.20;11.48;;;;;;;10.84;41.08;98899.75;5047943;28;20028;-72
2022/03/03 07:29:30;;;;;;;19.00;12.38;;;;;;;10.93;40.41;98870.66;5037087;28;20104;-76
2022/03/03 07:32:00;;;;;;;22.52;14.25;;;;;;;12.30;36.47;98869.22;5058707;28;20111;-74
2022/03/03 07:34:31;;;;;;;21.33;13.90;;;;;;;12.71;37.07;98878.91;5031337;28;20033;-74
2022/03/03 07:37:01;;;;;;;20.75;14.25;;;;;;;13.45;34.98;98857.59;5028916;28;20126;-74
2022/03/03 07:39:38;;;;;;;22.63;14.82;;;;;;;13.01;35.68;98862.03;5048036;28;20028;-77
2022/03/03 07:42:03;;;;;;;22.75;14.77;;;;;;;12.99;34.92;98883.13;5033074;28;20029;-76
2022/03/03 07:44:28;;;;;;;24.77;14.43;;;;;;;12.44;35.70;98884.44;5057039;28;20468;-74
2022/03/03 07:46:55;;;;;;;26.80;15.25;;;;;;;12.60;35.29;98885.84;5054802;28;20047;-73
2022/03/03 07:49:21;;;;;;;21.58;14.40;;;;;;;13.50;34.28;98855.88;5053502;28;20508;-74
2022/03/03 07:51:49;;;;;;;20.52;14.15;;;;;;;13.70;34.91;98876.63;5051598;28;20036;-74
2022/03/03 07:54:14;;;;;;;19.60;12.48;;;;;;;14.21;34.90;98891.88;5048204;28;20144;-75
2022/03/03 07:56:43;;;;;;;18.88;13.00;;;;;;;13.60;34.33;98888.03;5053831;28;20492;-74
2022/03/03 07:59:15;;;;;;;26.23;12.37;;;;;;;14.30;33.33;98897.84;5058154;28;20487;-76
2022/03/03 08:01:44;;;;;;;16.40;11.82;;;;;;;13.81;34.11;98879.47;5034399;28;20782;-77
2022/03/03 08:04:14;;;;;;;17.80;11.90;;;;;;;13.82;33.64;98859.38;5029499;28;20092;-79
2022/03/03 08:06:39;;;;;;;17.38;11.25;;;;;;;13.79;33.67;98870.69;5049959;28;20049;-77
2022/03/03 08:09:06;;;;;;;21.23;13.00;;;;;;;13.19;34.98;98897.44;5065746;28;20048;-77
2022/03/03 08:11:35;;;;;;;16.75;12.23;;;;;;;12.15;37.12;98890.31;5055442;28;20095;-77
2022/03/03 08:14:01;;;;;;;17.13;12.35;;;;;;;12.81;36.31;98873.84;5032554;28;20032;-77
2022/03/03 08:16:27;;;;;;;16.05;11.68;;;;;;;14.98;33.93;98896.88;5037863;28;20037;-77
2022/03/03 08:18:57;;;;;;;17.00;11.45;;;;;;;16.18;31.08;98855.78;5040284;28;20055;-77
2022/03/03 08:21:23;;;;;;;17.40;11.10;;;;;;;16.44;31.00;98881.75;5060945;28;20021;-77
2022/03/03 08:23:49;;;;;;;14.73;11.00;;;;;;;17.37;29.98;98861.72;5060901;28;20632;-76
2022/03/03 08:26:16;;;;;;;15.73;11.20;;;;;;;17.21;29.01;98868.84;5036976;28;20027;-74
2022/03/03 08:28:42;;;;;;;17.33;11.02;;;;;;;17.12;29.80;98867.56;5058820;28;20028;-76
2022/03/03 08:31:08;;;;;;;14.23;10.60;;;;;;;15.56;31.29;98893.53;5058427;28;20029;-75
2022/03/03 08:33:34;;;;;;;16.27;11.55;;;;;;;15.76;31.59;98888.63;5058364;28;20029;-75
2022/03/03 08:36:01;;;;;;;17.38;10.32;;;;;;;16.95;30.21;98886.63;5045522;28;20495;-75
2022/03/03 08:38:36;;;;;;;14.60;11.27;;;;;;;17.21;29.42;98880.63;5064789;28;20401;-70
2022/03/03 08:41:04;;;;;;;16.40;11.05;;;;;;;17.04;29.89;98879.72;5061872;28;20495;-72
2022/03/03 08:43:32;;;;;;;17.77;12.15;;;;;;;17.54;29.96;98881.75;5063707;28;20037;-72
2022/03/03 08:46:04;;;;;;;20.45;12.75;;;;;;;17.59;30.60;98875.53;5049962;28;20657;-71
2022/03/03 08:48:32;;;;;;;17.95;12.32;;;;;;;17.57;30.13;98872.22;5054098;28;20475;-71
2022/03/03 08:50:59;;;;;;;20.02;12.52;;;;;;;17.64;30.17;98884.66;5055617;28;20115;-70
2022/03/03 08:53:25;;;;;;;20.63;13.23;;;;;;;16.77;30.52;98885.75;5028412;28;20029;-71
2022/03/03 08:55:51;;;;;;;17.63;12.95;;;;;;;16.59;31.50;98875.78;5045560;28;20040;-70
2022/03/03 08:58:16;;;;;;;16.50;12.25;;;;;;;18.18;29.29;98879.56;5050144;28;20024;-74
2022/03/03 09:00:43;;;;;;;15.60;12.27;;;;;;;18.89;27.69;98872.56;5051200;28;20032;-74
2022/03/03 09:03:08;;;;;;;16.02;12.55;;;;;;;18.35;28.57;98873.22;5052269;28;20113;-71
2022/03/03 09:05:34;;;;;;;16.70;11.95;;;;;;;18.27;28.43;98877.19;5055739;28;20081;-77
2022/03/03 09:08:00;;;;;;;15.20;11.02;;;;;;;19.98;26.35;98870.63;5059867;28;20025;-75
2022/03/03 09:10:25;;;;;;;19.13;11.45;;;;;;;19.83;26.38;98879.56;5055246;28;20028;-75
2022/03/03 09:12:51;;;;;;;14.45;11.85;;;;;;;20.54;25.01;98876.50;5060328;28;20016;-76
2022/03/03 09:15:17;;;;;;;14.75;11.80;;;;;;;19.34;25.21;98869.50;5043954;28;20028;-76
2022/03/03 09:17:43;;;;;;;17.35;11.68;;;;;;;20.57;24.76;98871.31;5057591;28;20032;-77
2022/03/03 09:20:13;;;;;;;15.45;11.70;;;;;;;21.16;23.91;98864.66;5053955;28;20484;-77
2022/03/03 09:22:39;;;;;;;16.33;12.55;;;;;;;20.57;23.41;98859.50;5057592;28;20025;-77
2022/03/03 09:25:05;;;;;;;16.10;12.40;;;;;;;20.96;23.12;98854.44;5051818;28;20018;-77
2022/03/03 09:27:31;;;;;;;15.25;12.02;;;;;;;21.55;23.08;98875.22;5033645;28;20024;-76
2022/03/03 09:29:57;;;;;;;13.90;11.05;;;;;;;21.11;23.95;98863.81;5045160;28;20047;-72
2022/03/03 09:32:23;;;;;;;14.57;11.57;;;;;;;20.64;24.89;98854.56;5050570;28;20032;-74
2022/03/03 09:34:48;;;;;;;13.25;11.48;;;;;;;21.45;24.05;98865.03;5061896;28;20029;-71
2022/03/03 09:37:15;;;;;;;15.85;11.45;;;;;;;21.95;24.13;98857.06;5040168;28;20116;-75
2022/03/03 09:39:41;;;;;;;15.35;11.93;;;;;;;21.21;23.44;98856.41;5061440;28;20029;-76
2022/03/03 09:42:10;;;;;;;17.50;12.60;;;;;;;21.64;23.87;98848.81;5042434;28;20453;-76
2022/03/03 09:44:36;;;;;;;15.43;11.30;;;;;;;21.06;23.37;98850.88;5035898;28;20097;-74
2022/03/03 09:47:02;;;;;;;14.75;11.82;;;;;;;21.80;23.15;98849.66;5045776;28;20037;-76
2022/03/03 09:49:27;;;;;;;15.55;11.88;;;;;;;21.91;22.75;98838.63;5062386;23;20060;-70
2022/03/03 09:51:53;;;;;;;14.88;11.43;;;;;;;22.09;22.40;98838.88;5012328;28;20122;-69
2022/03/03 09:54:18;;;;;;;14.43;11.40;;;;;;;22.21;21.83;98846.03;5026425;28;20028;-70
2022/03/03 09:56:45;;;;;;;15.93;11.57;;;;;;;21.40;22.32;98820.97;5030845;28;20020;-74
2022/03/03 09:59:11;;;;;;;15.48;11.45;;;;;;;21.45;22.83;98836.66;5036491;28;20028;-72
2022/03/03 10:01:37;;;;;;;13.98;11.55;;;;;;;22.05;22.19;98834.19;5036661;28;20489;-71
2022/03/03 10:04:24;;;;;;;15.77;11.35;;;;;;;22.93;21.47;98835.59;5035309;28;20084;-73
2022/03/03 10:06:50;;;;;;;13.77;11.02;;;;;;;22.56;21.38;98833.25;5037972;28;20400;-68
2022/03/03 10:09:17;;;;;;;16.73;12.52;;;;;;;22.94;21.17;98835.28;5031087;28;20021;-70
2022/03/03 10:12:03;;;;;;;16.10;11.38;;;;;;;22.88;20.69;98824.59;5032773;28;20092;-75
2022/03/03 10:14:34;;;;;;;19.38;11.75;;;;;;;21.86;21.90;98825.69;5019284;28;20594;-69
2022/03/03 10:17:00;;;;;;;14.80;11.77;;;;;;;22.17;21.48;98795.31;5037045;28;20076;-69
2022/03/03 10:19:25;;;;;;;13.90;11.43;;;;;;;21.47;22.23;98798.69;5031442;28;20033;-71
2022/03/03 10:21:50;;;;;;;15.75;11.73;;;;;;;21.67;22.88;98809.72;5036741;28;20116;-71
2022/03/03 10:24:29;;;;;;;16.83;11.43;;;;;;;21.65;22.40;98822.94;5035594;28;20032;-71
2022/03/03 10:26:57;;;;;;;16.33;11.57;;;;;;;22.23;21.59;98824.53;5022994;28;20040;-72
2022/03/03 10:29:23;;;;;;;18.33;11.63;;;;;;;22.66;21.46;98823.03;5042906;28;20037;-69
2022/03/03 10:31:53;;;;;;;17.38;12.13;;;;;;;22.03;21.95;98819.84;5039648;28;20392;-68
2022/03/03 10:34:30;;;;;;;16.33;11.70;;;;;;;22.72;21.09;98826.59;5042487;28;20118;-72
2022/03/03 10:37:09;;;;;;;18.48;11.85;;;;;;;22.71;21.33;98808.38;5038655;28;20381;-71
2022/03/03 10:39:46;;;;;;;15.82;11.27;;;;;;;22.28;21.02;98810.75;5042711;28;20178;-70
2022/03/03 10:42:19;;;;;;;15.60;12.23;;;;;;;20.96;22.68;98801.38;5030673;28;20079;-72
2022/03/03 10:44:46;;;;;;;15.02;11.88;;;;;;;21.66;21.83;98794.28;5028627;28;20489;-72
2022/03/03 10:47:14;;;;;;;17.50;11.93;;;;;;;21.62;21.97;98804.22;5020878;28;20419;-68
2022/03/03 10:49:43;;;;;;;14.67;11.17;;;;;;;20.72;22.18;98809.25;5041847;28;20028;-68
2022/03/03 10:52:20;;;;;;;14.98;11.75;;;;;;;22.31;21.05;98801.91;5019772;28;20112;-68
2022/03/03 10:55:10;;;;;;;15.65;10.70;;;;;;;22.48;21.93;98801.59;5032513;28;20037;-68
2022/03/03 10:57:45;;;;;;;15.02;11.63;;;;;;;22.52;21.61;98797.16;5037194;28;20664;-68
2022/03/03 11:00:23;;;;;;;14.27;11.23;;;;;;;23.06;20.63;98793.63;5042036;28;20036;-68
2022/03/03 11:02:54;;;;;;;14.82;11.32;;;;;;;23.22;20.12;98786.06;5040554;28;20369;-67
2022/03/03 11:05:21;;;;;;;13.95;11.68;;;;;;;23.02;20.26;98783.44;5031277;28;20032;-67
2022/03/03 11:07:48;;;;;;;16.20;11.30;;;;;;;23.37;19.39;98771.28;5028903;28;20035;-66
2022/03/03 11:10:16;;;;;;;14.57;11.70;;;;;;;23.22;19.82;98763.97;5033573;28;20025;-71
2022/03/03 11:12:45;;;;;;;15.95;11.80;;;;;;;22.98;20.19;98750.06;5037868;28;20148;-67
2022/03/03 11:15:17;;;;;;;12.43;10.38;;;;;;;23.05;19.94;98763.53;5017364;28;20056;-67